Time;durP1;ratioP1;P1;durP2;ratioP2;P2;SDS_P1;SDS_P2;PMS_P1;PMS_P2;Temp;Humidity;BMP_temperature;BMP_pressure;BME280_temperature;BME280_humidity;BME280_pressure;Samples;Min_cycle;Max_cycle;Signal;HPM_P1;HPM_P2
2024/01/28 00:01:45;;;;;;;11.20;6.30;;;;;;;1.10;100.00;103311.88;6086098;19;20426;-71
2024/01/28 00:03:50;;;;;;;12.15;6.97;;;;;;;1.03;100.00;103315.09;6083858;19;20018;-71
2024/01/28 00:05:55;;;;;;;12.43;7.60;;;;;;;0.98;100.00;103315.72;6084764;19;20010;-71
2024/01/28 00:08:01;;;;;;;11.90;7.28;;;;;;;0.96;100.00;103312.19;6079145;19;20042;-70
2024/01/28 00:10:08;;;;;;;12.07;6.78;;;;;;;0.97;100.00;103309.66;6085201;19;20015;-70
2024/01/28 00:12:13;;;;;;;12.73;7.43;;;;;;;0.81;100.00;103304.69;6082563;19;20105;-72
2024/01/28 00:14:18;;;;;;;15.80;8.23;;;;;;;0.73;100.00;103309.56;6081551;19;20007;-70
2024/01/28 00:16:23;;;;;;;20.17;7.30;;;;;;;0.67;100.00;103309.34;6086582;19;20424;-70
2024/01/28 00:18:30;;;;;;;15.00;6.60;;;;;;;0.69;100.00;103310.28;6085154;19;20148;-71
2024/01/28 00:20:36;;;;;;;13.30;7.05;;;;;;;0.66;100.00;103305.00;6085245;19;20654;-71
2024/01/28 00:22:38;;;;;;;13.43;8.07;;;;;;;0.60;100.00;103305.59;6084206;19;20003;-71
2024/01/28 00:24:43;;;;;;;15.85;7.10;;;;;;;0.54;100.00;103299.31;6082522;19;20027;-71
2024/01/28 00:26:48;;;;;;;9.38;5.28;;;;;;;0.50;100.00;103294.81;6083333;19;20011;-71
2024/01/28 00:28:53;;;;;;;12.43;7.07;;;;;;;0.51;100.00;103292.31;6084705;19;20110;-71
2024/01/28 00:30:56;;;;;;;15.60;7.38;;;;;;;0.59;100.00;103287.44;6082854;19;20011;-71
2024/01/28 00:33:05;;;;;;;17.40;7.25;;;;;;;0.64;100.00;103284.22;6085374;19;20152;-70
2024/01/28 00:35:08;;;;;;;14.15;6.93;;;;;;;0.54;100.00;103286.38;6084335;19;20014;-70
2024/01/28 00:37:13;;;;;;;15.60;7.15;;;;;;;0.45;100.00;103281.72;6083925;19;20003;-70
2024/01/28 00:39:18;;;;;;;12.20;6.40;;;;;;;0.40;100.00;103275.47;6083240;19;20052;-70
2024/01/28 00:41:22;;;;;;;10.68;6.15;;;;;;;0.37;100.00;103267.56;6084182;19;20395;-72
2024/01/28 00:43:27;;;;;;;15.32;7.43;;;;;;;0.37;100.00;103273.66;6084258;19;20011;-73
2024/01/28 00:45:37;;;;;;;14.18;8.27;;;;;;;0.48;100.00;103265.44;6082852;19;20024;-70
2024/01/28 00:47:41;;;;;;;16.25;8.68;;;;;;;0.55;100.00;103259.66;6055670;19;19998;-70
2024/01/28 00:49:49;;;;;;;14.13;6.47;;;;;;;0.70;100.00;103262.00;6081129;19;20050;-71
2024/01/28 00:51:51;;;;;;;13.88;6.63;;;;;;;0.72;100.00;103258.66;6085533;19;20513;-71
2024/01/28 00:53:56;;;;;;;18.48;7.57;;;;;;;0.70;100.00;103259.41;6082439;19;20007;-71
2024/01/28 00:56:01;;;;;;;14.23;8.20;;;;;;;0.68;100.00;103256.75;6082615;19;20374;-72
2024/01/28 00:58:10;;;;;;;18.77;6.35;;;;;;;0.68;100.00;103261.03;6089942;19;20512;-70
2024/01/28 01:00:15;;;;;;;11.90;6.65;;;;;;;0.69;100.00;103265.41;6086280;19;20622;-72
2024/01/28 01:02:21;;;;;;;11.43;6.25;;;;;;;0.69;100.00;103266.28;6089992;19;20013;-72
2024/01/28 01:04:26;;;;;;;9.07;5.45;;;;;;;0.69;100.00;103274.06;6089256;19;20015;-72
2024/01/28 01:06:31;;;;;;;11.15;6.05;;;;;;;0.69;100.00;103271.47;6084997;19;20014;-71
2024/01/28 01:08:37;;;;;;;20.25;8.38;;;;;;;0.57;100.00;103268.38;6088140;19;20036;-71
2024/01/28 01:10:43;;;;;;;10.63;5.88;;;;;;;0.45;100.00;103263.63;6089285;19;20090;-72
2024/01/28 01:12:48;;;;;;;18.40;7.43;;;;;;;0.37;100.00;103263.31;6089273;19;20007;-70
2024/01/28 01:14:53;;;;;;;10.40;6.45;;;;;;;0.33;100.00;103258.81;6088007;19;20011;-69
2024/01/28 01:17:01;;;;;;;13.32;6.38;;;;;;;0.47;100.00;103242.97;6089927;19;20486;-70
2024/01/28 01:19:07;;;;;;;12.02;7.50;;;;;;;0.58;100.00;103233.91;6086462;19;20003;-71
2024/01/28 01:21:12;;;;;;;13.13;6.35;;;;;;;0.62;100.00;103225.47;6087857;19;20003;-71
2024/01/28 01:23:20;;;;;;;15.65;7.03;;;;;;;0.63;100.00;103230.72;6089685;19;20034;-71
2024/01/28 01:25:26;;;;;;;11.35;6.47;;;;;;;0.68;100.00;103223.09;6087912;19;20007;-71
2024/01/28 01:27:31;;;;;;;15.52;6.15;;;;;;;0.71;100.00;103223.25;6090118;19;20081;-71
2024/01/28 01:29:36;;;;;;;9.85;6.40;;;;;;;0.72;100.00;103209.47;6089500;19;20010;-71
2024/01/28 01:31:41;;;;;;;12.35;6.95;;;;;;;0.57;100.00;103206.28;6088220;19;20013;-71
2024/01/28 01:33:46;;;;;;;18.00;7.00;;;;;;;0.44;100.00;103203.22;6087576;19;20110;-71
2024/01/28 01:35:49;;;;;;;12.05;7.30;;;;;;;0.37;100.00;103196.06;6090539;19;20086;-72
2024/01/28 01:37:54;;;;;;;9.00;5.43;;;;;;;0.41;100.00;103190.16;6084377;19;20538;-70
2024/01/28 01:40:02;;;;;;;17.70;8.07;;;;;;;0.48;100.00;103193.88;6086422;19;20023;-70
2024/01/28 01:42:10;;;;;;;11.40;7.53;;;;;;;0.51;100.00;103199.19;6088504;19;20559;-70
2024/01/28 01:44:15;;;;;;;12.55;7.15;;;;;;;0.46;100.00;103189.47;6087712;19;20051;-71
2024/01/28 01:46:20;;;;;;;14.75;6.43;;;;;;;0.54;100.00;103194.13;6085801;19;20010;-70
2024/01/28 01:48:26;;;;;;;10.77;6.78;;;;;;;0.43;100.00;103192.81;6088373;19;20022;-70
2024/01/28 01:50:32;;;;;;;17.23;5.38;;;;;;;0.34;100.00;103189.88;6086504;19;20436;-71
2024/01/28 01:52:38;;;;;;;14.77;7.05;;;;;;;0.33;100.00;103191.56;6082505;19;20023;-72
2024/01/28 01:54:44;;;;;;;12.57;6.95;;;;;;;0.33;100.00;103191.56;6088034;19;20173;-71
2024/01/28 01:56:52;;;;;;;15.10;7.90;;;;;;;0.36;100.00;103189.09;6085779;19;20017;-72
2024/01/28 01:58:55;;;;;;;8.43;5.45;;;;;;;0.38;100.00;103191.75;6087709;19;20010;-71
2024/01/28 02:01:02;;;;;;;11.65;5.03;;;;;;;0.34;100.00;103187.28;6087332;19;20343;-71
2024/01/28 02:03:07;;;;;;;13.88;6.78;;;;;;;0.36;100.00;103189.09;6086799;19;20052;-70
2024/01/28 02:05:13;;;;;;;11.15;6.80;;;;;;;0.30;100.00;103180.25;6083700;19;20007;-71
2024/01/28 02:07:18;;;;;;;10.13;5.75;;;;;;;0.23;100.00;103179.09;6083794;19;20028;-70
2024/01/28 02:09:22;;;;;;;11.18;6.68;;;;;;;0.23;100.00;103181.69;6086517;19;20017;-70
2024/01/28 02:11:30;;;;;;;11.77;7.35;;;;;;;0.20;100.00;103181.56;6087127;19;20038;-70
2024/01/28 02:13:40;;;;;;;7.25;5.07;;;;;;;0.18;100.00;103180.63;6087076;19;20046;-71
2024/01/28 02:15:45;;;;;;;12.10;5.85;;;;;;;0.29;100.00;103186.22;6086607;19;20014;-71
2024/01/28 02:17:52;;;;;;;11.82;5.50;;;;;;;0.24;100.00;103187.72;6082330;19;20007;-71
2024/01/28 02:19:57;;;;;;;10.38;5.38;;;;;;;0.29;100.00;103191.38;6085102;19;20023;-71
2024/01/28 02:22:02;;;;;;;13.40;5.65;;;;;;;0.28;100.00;103194.81;6087371;19;20042;-71
2024/01/28 02:24:13;;;;;;;14.43;5.88;;;;;;;0.22;100.00;103188.56;6085847;19;20449;-71
2024/01/28 02:26:18;;;;;;;10.38;4.85;;;;;;;0.16;100.00;103190.03;6084839;19;20010;-71
2024/01/28 02:28:24;;;;;;;11.63;6.25;;;;;;;0.20;100.00;103185.03;6085497;19;20609;-71
2024/01/28 02:30:35;;;;;;;9.63;5.47;;;;;;;0.21;100.00;103178.16;6085216;19;20245;-71
2024/01/28 02:32:48;;;;;;;11.18;5.63;;;;;;;0.26;100.00;103181.81;6086602;19;20697;-71
2024/01/28 02:34:53;;;;;;;10.30;6.15;;;;;;;0.33;100.00;103180.34;6085413;19;20007;-71
2024/01/28 02:36:58;;;;;;;13.77;6.35;;;;;;;0.32;100.00;103176.88;6084460;19;20007;-71
2024/01/28 02:39:04;;;;;;;11.50;6.60;;;;;;;0.36;100.00;103175.28;6085332;19;20006;-71
2024/01/28 02:41:12;;;;;;;10.32;5.22;;;;;;;0.36;100.00;103178.75;6086128;19;20006;-71
2024/01/28 02:43:14;;;;;;;18.05;6.70;;;;;;;0.34;100.00;103176.94;6087403;19;20007;-71
2024/01/28 02:45:20;;;;;;;12.32;5.97;;;;;;;0.35;100.00;103170.97;6084945;19;20466;-71
2024/01/28 02:47:25;;;;;;;7.97;5.57;;;;;;;0.39;100.00;103165.94;6086118;19;20639;-70
2024/01/28 02:49:31;;;;;;;9.38;5.10;;;;;;;0.41;100.00;103161.72;6085774;19;20014;-71
2024/01/28 02:51:36;;;;;;;12.30;6.00;;;;;;;0.43;100.00;103165.25;6086796;19;20021;-71
2024/01/28 02:53:42;;;;;;;12.82;6.10;;;;;;;0.43;100.00;103162.66;6085183;19;20023;-71
2024/01/28 02:55:49;;;;;;;14.00;5.57;;;;;;;0.32;100.00;103155.31;6089169;19;20785;-72
2024/01/28 02:57:56;;;;;;;13.25;6.78;;;;;;;0.22;100.00;103157.53;6090560;19;20371;-71
2024/01/28 03:00:06;;;;;;;9.05;4.63;;;;;;;0.24;100.00;103155.03;6000214;19;2004967;-71
2024/01/28 03:02:12;;;;;;;9.75;5.20;;;;;;;0.33;100.00;103147.59;6086143;19;20003;-72
2024/01/28 03:04:17;;;;;;;13.15;5.60;;;;;;;0.36;100.00;103137.38;6083473;19;20073;-72
2024/01/28 03:06:22;;;;;;;12.63;7.10;;;;;;;0.37;100.00;103140.84;6085896;19;20026;-70
2024/01/28 03:08:27;;;;;;;8.90;5.07;;;;;;;0.34;100.00;103132.97;6084922;19;20015;-71
2024/01/28 03:10:33;;;;;;;9.05;5.60;;;;;;;0.33;100.00;103129.50;6086540;19;20003;-71
2024/01/28 03:12:39;;;;;;;9.15;5.05;;;;;;;0.30;100.00;103129.41;6085116;19;20017;-71
2024/01/28 03:14:45;;;;;;;13.85;5.38;;;;;;;0.37;100.00;103121.06;6083422;19;20014;-71
2024/01/28 03:16:51;;;;;;;7.82;5.15;;;;;;;0.43;100.00;103117.81;6083758;19;20023;-72
2024/01/28 03:18:56;;;;;;;9.80;5.25;;;;;;;0.47;100.00;103121.38;6084124;19;20013;-71
2024/01/28 03:21:01;;;;;;;8.93;5.45;;;;;;;0.42;100.00;103119.53;6081207;19;20027;-70
2024/01/28 03:23:06;;;;;;;11.30;5.72;;;;;;;0.40;100.00;103110.81;6084728;19;20010;-70
2024/01/28 03:25:12;;;;;;;11.35;6.53;;;;;;;0.36;100.00;103113.22;6085942;19;20010;-71
2024/01/28 03:27:17;;;;;;;15.63;7.13;;;;;;;0.25;100.00;103117.13;6084984;19;20056;-71
2024/01/28 03:29:23;;;;;;;10.35;5.45;;;;;;;0.14;100.00;103121.88;6084566;19;20760;-71
2024/01/28 03:31:30;;;;;;;10.05;5.90;;;;;;;0.15;100.00;103121.03;6086084;19;20023;-70
2024/01/28 03:33:37;;;;;;;10.27;6.43;;;;;;;0.18;100.00;103103.94;6084279;19;20025;-70
2024/01/28 03:35:42;;;;;;;6.47;4.55;;;;;;;0.20;100.00;103107.47;6083781;19;20026;-70
2024/01/28 03:37:48;;;;;;;9.18;5.35;;;;;;;0.19;100.00;103112.59;6081700;19;20517;-71
2024/01/28 03:39:53;;;;;;;11.25;4.97;;;;;;;0.21;100.00;103123.84;6084846;19;20498;-71
2024/01/28 03:41:55;;;;;;;9.07;5.47;;;;;;;0.23;100.00;103114.44;6082385;19;19998;-71
2024/01/28 03:44:00;;;;;;;11.15;6.10;;;;;;;0.24;100.00;103112.75;6084490;19;20054;-71
2024/01/28 03:46:05;;;;;;;12.68;6.03;;;;;;;0.19;100.00;103107.41;6081238;19;20014;-70
2024/01/28 03:48:13;;;;;;;15.23;5.47;;;;;;;0.17;100.00;103109.06;6083691;19;20081;-71
2024/01/28 03:50:19;;;;;;;7.45;5.50;;;;;;;0.11;100.00;103112.28;6085186;19;20007;-71
2024/01/28 03:52:24;;;;;;;9.55;5.57;;;;;;;0.09;100.00;103111.34;6080568;19;20594;-71
2024/01/28 03:54:34;;;;;;;11.70;5.50;;;;;;;0.11;100.00;103117.47;6084144;19;20078;-71
2024/01/28 03:56:40;;;;;;;13.68;5.20;;;;;;;0.17;100.00;103098.72;6081923;19;20790;-71
2024/01/28 03:58:45;;;;;;;13.95;6.40;;;;;;;0.20;100.00;103104.00;6083910;19;20031;-71
2024/01/28 04:00:50;;;;;;;9.32;5.80;;;;;;;0.18;100.00;103101.34;6084257;19;20007;-71
2024/01/28 04:02:57;;;;;;;10.90;6.22;;;;;;;0.20;100.00;103099.69;6081992;19;20013;-71
2024/01/28 04:05:05;;;;;;;15.23;4.78;;;;;;;0.10;100.00;103102.75;6082595;19;20014;-71
2024/01/28 04:07:10;;;;;;;10.60;5.10;;;;;;;0.03;100.00;103115.38;6084965;19;20026;-70
2024/01/28 04:09:16;;;;;;;9.40;4.45;;;;;;;0.06;100.00;103111.22;6082496;19;20013;-72
2024/01/28 04:11:21;;;;;;;11.20;5.50;;;;;;;-0.02;100.00;103105.75;6082483;19;20483;-72
2024/01/28 04:13:26;;;;;;;16.60;6.43;;;;;;;0.06;100.00;103112.94;6081025;19;20547;-71
2024/01/28 04:15:28;;;;;;;11.98;5.18;;;;;;;0.13;100.00;103102.00;6083020;19;20016;-71
2024/01/28 04:17:36;;;;;;;14.55;5.10;;;;;;;0.14;100.00;103101.19;6083499;19;20332;-71
2024/01/28 04:19:42;;;;;;;8.70;5.10;;;;;;;0.16;100.00;103091.78;6083460;19;20498;-71
2024/01/28 04:21:50;;;;;;;14.20;5.28;;;;;;;0.12;100.00;103084.72;6083835;19;20124;-71
2024/01/28 04:23:56;;;;;;;7.18;4.85;;;;;;;0.15;100.00;103090.00;6081740;19;20011;-70
2024/01/28 04:26:01;;;;;;;12.13;4.93;;;;;;;0.10;100.00;103084.66;6083444;19;20071;-71
2024/01/28 04:28:09;;;;;;;9.88;5.53;;;;;;;0.12;100.00;103080.44;6080077;19;20035;-71
2024/01/28 04:30:12;;;;;;;6.65;4.47;;;;;;;0.13;100.00;103076.13;6082766;19;20003;-70
2024/01/28 04:32:17;;;;;;;11.02;4.90;;;;;;;0.16;100.00;103073.69;6084237;19;20011;-71
2024/01/28 04:34:22;;;;;;;11.48;5.78;;;;;;;0.16;100.00;103076.28;6086587;19;20007;-71
2024/01/28 04:36:28;;;;;;;10.80;4.78;;;;;;;0.16;100.00;103078.88;6091064;19;20011;-71
2024/01/28 04:38:36;;;;;;;8.57;4.45;;;;;;;0.08;100.00;103075.97;6086125;19;20003;-71
2024/01/28 04:40:41;;;;;;;10.35;4.82;;;;;;;0.09;100.00;103069.09;6087921;19;20007;-71
2024/01/28 04:42:46;;;;;;;15.32;6.05;;;;;;;0.08;100.00;103065.66;6089000;19;20079;-71
2024/01/28 04:44:51;;;;;;;9.98;5.18;;;;;;;0.15;100.00;103058.97;6087234;19;20345;-71
2024/01/28 04:46:57;;;;;;;11.13;6.18;;;;;;;0.09;100.00;103059.63;6089494;19;20020;-70
2024/01/28 04:49:03;;;;;;;11.02;5.25;;;;;;;0.05;100.00;103056.88;6088056;19;20015;-70
2024/01/28 04:51:06;;;;;;;13.10;5.13;;;;;;;-0.01;100.00;103052.34;6086746;19;20014;-71
2024/01/28 04:53:11;;;;;;;;;;;;;;;-0.05;100.00;103050.47;6085675;19;20359;-70
2024/01/28 04:55:18;;;;;;;9.52;5.25;;;;;;;-0.06;100.00;103043.53;6088191;19;20198;-71
2024/01/28 04:57:21;;;;;;;8.27;4.93;;;;;;;-0.13;100.00;103041.53;6089308;19;20427;-71
2024/01/28 04:59:26;;;;;;;7.85;4.32;;;;;;;-0.18;100.00;103041.38;6091293;19;20023;-71
2024/01/28 05:01:32;;;;;;;7.05;4.65;;;;;;;-0.25;100.00;103031.59;6087932;19;20029;-71
2024/01/28 05:03:39;;;;;;;8.27;4.40;;;;;;;-0.17;100.00;103037.06;6087637;19;20070;-70
2024/01/28 05:05:45;;;;;;;7.28;4.45;;;;;;;-0.11;100.00;103035.59;6088417;19;20022;-72
2024/01/28 05:07:50;;;;;;;9.02;5.32;;;;;;;0.02;100.00;103042.13;6087120;19;20006;-71
2024/01/28 05:09:55;;;;;;;8.68;4.57;;;;;;;-0.02;100.00;103035.97;6088893;19;20101;-71
2024/01/28 05:12:03;;;;;;;7.47;4.65;;;;;;;0.00;100.00;103036.03;6089374;19;20014;-72
2024/01/28 05:14:08;;;;;;;7.60;4.25;;;;;;;-0.03;100.00;103031.63;6090913;19;19998;-74
2024/01/28 05:16:13;;;;;;;10.10;5.22;;;;;;;-0.04;100.00;103028.97;6090355;19;20036;-70
2024/01/28 05:18:19;;;;;;;9.90;5.35;;;;;;;-0.04;100.00;103023.81;6087345;19;20519;-69
2024/01/28 05:20:24;;;;;;;10.55;4.70;;;;;;;-0.02;100.00;103019.59;6086696;19;20754;-70
2024/01/28 05:22:29;;;;;;;8.80;4.50;;;;;;;-0.03;100.00;103017.78;6089933;19;20697;-71
2024/01/28 05:24:37;;;;;;;10.10;4.93;;;;;;;-0.03;100.00;103015.22;6088481;19;20056;-70
2024/01/28 05:26:42;;;;;;;8.30;4.82;;;;;;;-0.04;100.00;103011.75;6087555;19;20010;-72
2024/01/28 05:28:50;;;;;;;14.68;5.80;;;;;;;-0.05;100.00;103016.88;6085357;19;20008;-72
2024/01/28 05:30:56;;;;;;;9.00;4.32;;;;;;;-0.07;100.00;103013.34;6089797;19;20569;-72
2024/01/28 05:33:02;;;;;;;7.35;5.07;;;;;;;-0.09;100.00;103009.81;6085575;19;20011;-70
2024/01/28 05:35:07;;;;;;;7.90;4.60;;;;;;;-0.08;100.00;103004.72;6087286;19;20039;-73
2024/01/28 05:37:15;;;;;;;14.75;5.57;;;;;;;-0.13;100.00;102995.91;6087230;19;20361;-71
2024/01/28 05:39:20;;;;;;;9.18;4.88;;;;;;;-0.18;100.00;102997.44;6088639;19;20003;-72
2024/01/28 05:41:26;;;;;;;16.42;6.10;;;;;;;-0.20;100.00;102995.63;6087578;19;20010;-71
2024/01/28 05:43:31;;;;;;;13.00;5.53;;;;;;;-0.21;100.00;102992.16;6088970;19;20003;-71
2024/01/28 05:45:38;;;;;;;11.88;5.43;;;;;;;-0.22;100.00;102990.38;6087476;19;20011;-71
2024/01/28 05:47:43;;;;;;;10.60;5.30;;;;;;;-0.29;100.00;102994.44;6089292;19;20475;-71
2024/01/28 05:49:48;;;;;;;8.30;4.68;;;;;;;-0.24;100.00;102999.75;6086999;19;20003;-70
2024/01/28 05:51:53;;;;;;;7.15;4.45;;;;;;;-0.24;100.00;103004.94;6087029;19;20014;-70
2024/01/28 05:54:00;;;;;;;10.95;5.03;;;;;;;-0.18;100.00;102997.44;6084356;19;20010;-71
2024/01/28 05:56:06;;;;;;;8.60;5.60;;;;;;;-0.18;100.00;102994.84;6084929;19;20014;-70
2024/01/28 05:58:11;;;;;;;6.15;4.10;;;;;;;-0.26;100.00;103002.31;6087400;19;20583;-71
2024/01/28 06:00:18;;;;;;;10.10;5.13;;;;;;;-0.39;100.00;103001.78;6080726;19;20015;-71
2024/01/28 06:02:28;;;;;;;9.60;4.97;;;;;;;-0.48;100.00;103010.03;6086250;19;20003;-71
2024/01/28 06:04:33;;;;;;;8.35;5.05;;;;;;;-0.57;100.00;103012.25;6085173;19;20003;-71
2024/01/28 06:06:38;;;;;;;8.88;4.53;;;;;;;-0.54;100.00;103012.38;6087375;19;20059;-71
2024/01/28 06:08:45;;;;;;;12.80;5.90;;;;;;;-0.59;100.00;103003.56;6086682;19;20034;-71
2024/01/28 06:10:50;;;;;;;10.02;4.95;;;;;;;-0.54;100.00;103005.50;6085033;19;20002;-70
2024/01/28 06:12:57;;;;;;;9.52;5.45;;;;;;;-0.53;100.00;103004.66;6085457;19;20003;-71
2024/01/28 06:15:07;;;;;;;13.40;5.47;;;;;;;-0.41;100.00;102995.66;6083206;19;20490;-71
2024/01/28 06:17:13;;;;;;;8.43;4.63;;;;;;;-0.38;100.00;102994.06;6086211;19;20300;-71
2024/01/28 06:19:21;;;;;;;9.02;5.55;;;;;;;-0.41;100.00;102993.09;6086216;19;20007;-72
2024/01/28 06:21:26;;;;;;;9.50;4.80;;;;;;;-0.38;100.00;102988.91;6085139;19;20010;-72
2024/01/28 06:23:31;;;;;;;9.98;4.50;;;;;;;-0.29;100.00;102996.13;6083649;19;20010;-71
2024/01/28 06:25:37;;;;;;;6.60;4.90;;;;;;;-0.28;100.00;102985.84;6083305;19;20006;-71
2024/01/28 06:27:42;;;;;;;14.02;5.95;;;;;;;-0.31;100.00;102984.88;6086927;19;20430;-71
2024/01/28 06:29:48;;;;;;;9.75;4.90;;;;;;;-0.29;100.00;102983.19;6082692;19;20076;-71
2024/01/28 06:31:53;;;;;;;7.95;4.72;;;;;;;-0.29;100.00;102983.19;6085829;19;20029;-71
2024/01/28 06:33:59;;;;;;;12.95;5.97;;;;;;;-0.36;100.00;102989.84;6087298;19;20384;-70
2024/01/28 06:36:09;;;;;;;12.07;4.95;;;;;;;-0.34;100.00;102985.63;6086130;19;20459;-70
2024/01/28 06:38:14;;;;;;;8.10;4.40;;;;;;;-0.32;100.00;102981.38;6086727;19;20098;-70
2024/01/28 06:40:16;;;;;;;8.52;5.22;;;;;;;-0.30;100.00;102984.03;6084932;19;20082;-72
2024/01/28 06:42:21;;;;;;;8.23;5.20;;;;;;;-0.29;100.00;102978.03;6080864;19;20021;-71
2024/01/28 06:44:26;;;;;;;12.05;5.20;;;;;;;-0.29;100.00;102980.63;6084860;19;20014;-71
2024/01/28 06:46:33;;;;;;;13.85;5.03;;;;;;;-0.25;100.00;102972.19;6083246;19;20002;-70
2024/01/28 06:48:38;;;;;;;9.07;4.50;;;;;;;-0.29;100.00;102967.69;6086164;19;20018;-71
2024/01/28 06:50:43;;;;;;;11.00;5.20;;;;;;;-0.27;100.00;102971.22;6084281;19;20119;-72
2024/01/28 06:52:51;;;;;;;7.32;4.68;;;;;;;-0.22;100.00;102974.88;6083197;19;20010;-70
2024/01/28 06:54:56;;;;;;;12.85;5.43;;;;;;;-0.28;100.00;102969.47;6083157;19;20660;-71
2024/01/28 06:56:58;;;;;;;8.23;4.63;;;;;;;-0.27;100.00;102974.69;6083974;19;20037;-70
2024/01/28 06:59:03;;;;;;;6.68;4.43;;;;;;;-0.25;100.00;102967.88;6086737;19;20014;-70
2024/01/28 07:01:13;;;;;;;13.05;5.10;;;;;;;-0.27;100.00;102960.91;6084450;19;20015;-72
2024/01/28 07:03:18;;;;;;;6.72;4.57;;;;;;;-0.17;100.00;102957.84;6083978;19;20042;-71
2024/01/28 07:05:25;;;;;;;11.30;4.70;;;;;;;-0.14;100.00;102967.41;6083784;19;20014;-70
2024/01/28 07:07:30;;;;;;;8.20;4.65;;;;;;;-0.11;100.00;102970.97;6085208;19;20038;-71
2024/01/28 07:09:37;;;;;;;7.32;3.88;;;;;;;-0.14;100.00;102968.28;6084529;19;20009;-71
2024/01/28 07:11:43;;;;;;;9.13;4.82;;;;;;;-0.12;100.00;102971.81;6083448;19;20002;-71
2024/01/28 07:13:48;;;;;;;10.88;5.30;;;;;;;-0.10;100.00;102965.00;6084050;19;20090;-70
2024/01/28 07:15:50;;;;;;;8.80;5.25;;;;;;;-0.04;100.00;102962.66;6086523;19;20010;-71
2024/01/28 07:17:55;;;;;;;7.72;3.92;;;;;;;-0.02;100.00;102960.13;6086126;19;20724;-71
2024/01/28 07:20:03;;;;;;;6.55;4.43;;;;;;;0.02;100.00;102974.91;6085413;19;20114;-70
2024/01/28 07:22:11;;;;;;;8.80;4.43;;;;;;;0.07;100.00;102957.88;6083258;19;20117;-71
2024/01/28 07:24:17;;;;;;;10.60;4.80;;;;;;;0.05;100.00;102968.97;6085201;19;20003;-71
2024/01/28 07:26:25;;;;;;;8.00;4.65;;;;;;;0.03;100.00;102956.03;6083650;19;20081;-72
2024/01/28 07:28:31;;;;;;;9.88;5.03;;;;;;;-0.04;100.00;102960.06;6084749;19;20471;-72
2024/01/28 07:30:36;;;;;;;6.15;4.07;;;;;;;-0.01;100.00;102957.59;6085378;19;20734;-70
2024/01/28 07:32:41;;;;;;;14.43;6.30;;;;;;;0.03;100.00;102958.59;6083301;19;20077;-71
2024/01/28 07:34:44;;;;;;;8.18;4.30;;;;;;;-0.01;100.00;102957.59;6075880;19;20550;-71
2024/01/28 07:36:51;;;;;;;9.43;4.10;;;;;;;0.04;100.00;102952.59;6085402;19;20471;-71
2024/01/28 07:38:56;;;;;;;10.57;4.97;;;;;;;0.07;100.00;102949.25;6083768;19;20013;-71
2024/01/28 07:41:01;;;;;;;10.88;4.93;;;;;;;-0.01;100.00;102949.84;6080661;19;20050;-70
2024/01/28 07:43:10;;;;;;;7.35;4.25;;;;;;;-0.06;100.00;102946.19;6083523;19;20179;-71
2024/01/28 07:45:16;;;;;;;8.88;4.90;;;;;;;-0.10;100.00;102943.47;6085407;19;20006;-71
2024/01/28 07:47:21;;;;;;;9.02;4.60;;;;;;;-0.03;100.00;102942.84;6084715;19;22095;-70
2024/01/28 07:49:26;;;;;;;7.05;4.68;;;;;;;0.01;100.00;102936.09;6083921;19;20031;-70
2024/01/28 07:51:28;;;;;;;10.40;4.97;;;;;;;0.10;100.00;102933.84;6083363;19;20530;-71
2024/01/28 07:53:37;;;;;;;9.00;5.10;;;;;;;0.20;100.00;102929.06;6078901;19;20011;-71
2024/01/28 07:55:42;;;;;;;6.00;4.55;;;;;;;0.20;100.00;102923.00;6085779;19;20426;-70
2024/01/28 07:57:47;;;;;;;11.65;4.72;;;;;;;0.28;100.00;102916.41;6082947;19;20006;-70
2024/01/28 07:59:54;;;;;;;7.05;3.83;;;;;;;0.31;100.00;102918.22;6084977;19;20010;-70
2024/01/28 08:02:02;;;;;;;15.18;5.32;;;;;;;0.30;100.00;102911.31;6084055;19;20038;-71
2024/01/28 08:04:10;;;;;;;7.30;3.50;;;;;;;0.33;100.00;102909.69;6081129;19;20602;-71
2024/01/28 08:06:13;;;;;;;8.95;4.28;;;;;;;0.39;100.00;102912.47;6082153;19;20003;-71
2024/01/28 08:08:19;;;;;;;7.78;4.20;;;;;;;0.61;100.00;102915.81;6083446;19;20566;-71
2024/01/28 08:10:24;;;;;;;8.48;5.05;;;;;;;0.56;100.00;102910.50;6083240;19;20731;-73
2024/01/28 08:12:29;;;;;;;9.43;4.18;;;;;;;0.61;100.00;102911.53;6081866;19;20031;-72
2024/01/28 08:14:34;;;;;;;5.35;3.58;;;;;;;0.64;100.00;102913.34;6082086;19;20015;-72
2024/01/28 08:16:42;;;;;;;8.68;4.00;;;;;;;0.70;100.00;102904.91;6084034;19;20014;-73
2024/01/28 08:18:47;;;;;;;7.00;3.60;;;;;;;0.69;100.00;102906.59;6083055;19;20542;-73
2024/01/28 08:20:50;;;;;;;9.85;4.53;;;;;;;0.72;100.00;102909.28;6084004;19;20007;-73
2024/01/28 08:22:55;;;;;;;7.22;4.35;;;;;;;0.70;100.00;102913.53;6081779;19;20379;-72
2024/01/28 08:25:00;;;;;;;7.35;4.28;;;;;;;0.67;100.00;102913.44;6083857;19;20018;-72
2024/01/28 08:27:05;;;;;;;6.05;4.65;;;;;;;0.75;100.00;102913.69;6084772;19;20002;-71
2024/01/28 08:29:11;;;;;;;5.85;3.85;;;;;;;0.76;100.00;102915.44;6081640;19;20028;-72
2024/01/28 08:31:16;;;;;;;10.65;4.40;;;;;;;0.73;100.00;102911.03;6086908;19;20042;-72
2024/01/28 08:33:26;;;;;;;11.02;5.00;;;;;;;0.73;100.00;102910.16;6084330;19;20014;-73
2024/01/28 08:35:32;;;;;;;7.90;5.25;;;;;;;0.74;100.00;102918.00;6083904;19;20010;-72
2024/01/28 08:37:38;;;;;;;9.18;4.03;;;;;;;0.77;100.00;102902.56;6083993;19;20007;-72
2024/01/28 08:39:43;;;;;;;8.55;3.90;;;;;;;0.79;100.00;102906.09;6080273;19;20002;-72
2024/01/28 08:41:48;;;;;;;6.93;4.05;;;;;;;0.87;100.00;102909.81;6083560;19;20379;-71
2024/01/28 08:43:53;;;;;;;8.02;4.20;;;;;;;1.04;100.00;102899.13;6079098;19;20003;-71
2024/01/28 08:46:04;;;;;;;8.80;3.55;;;;;;;1.08;100.00;102894.09;6082071;19;20011;-72
2024/01/28 08:48:09;;;;;;;9.55;4.95;;;;;;;1.11;100.00;102898.50;6082101;19;20709;-71
2024/01/28 08:50:17;;;;;;;8.32;3.83;;;;;;;1.18;100.00;102897.81;6079225;19;20002;-72
2024/01/28 08:52:23;;;;;;;10.52;4.18;;;;;;;1.30;100.00;102893.03;6078982;19;20042;-72
2024/01/28 08:54:32;;;;;;;11.25;5.43;;;;;;;1.30;100.00;102890.44;6080857;19;20078;-73
2024/01/28 08:56:37;;;;;;;8.77;4.55;;;;;;;1.48;100.00;102886.66;6080860;19;20031;-72
2024/01/28 08:58:42;;;;;;;7.40;4.18;;;;;;;1.50;100.00;102883.28;6081526;19;20014;-72
2024/01/28 09:00:48;;;;;;;6.63;4.05;;;;;;;1.53;100.00;102887.69;6082322;19;20043;-72
2024/01/28 09:02:54;;;;;;;8.68;3.47;;;;;;;1.61;100.00;102882.72;6080904;19;20019;-72
2024/01/28 09:05:01;;;;;;;16.50;5.25;;;;;;;1.70;100.00;102881.25;6081288;19;20006;-72
2024/01/28 09:07:09;;;;;;;7.93;5.32;;;;;;;1.79;100.00;102879.75;6082442;19;20010;-72
2024/01/28 09:09:14;;;;;;;7.10;4.40;;;;;;;1.91;100.00;102877.53;6081045;19;20146;-72
2024/01/28 09:11:19;;;;;;;7.45;4.13;;;;;;;1.91;100.00;102881.00;6082454;19;20011;-73
2024/01/28 09:13:27;;;;;;;7.25;4.35;;;;;;;2.01;100.00;102882.13;6082098;19;20026;-75
2024/01/28 09:15:35;;;;;;;11.65;4.22;;;;;;;2.06;100.00;102872.78;6080151;19;20017;-71
2024/01/28 09:17:40;;;;;;;8.52;4.25;;;;;;;2.06;100.00;102879.69;6082184;19;20018;-73
2024/01/28 09:19:45;;;;;;;6.95;4.15;;;;;;;2.13;100.00;102877.31;6089398;19;20459;-72
2024/01/28 09:21:49;;;;;;;12.50;4.60;;;;;;;2.12;100.00;102878.13;6084141;19;20110;-75
2024/01/28 09:23:57;;;;;;;9.60;4.35;;;;;;;2.23;100.00;102875.81;6087071;19;20017;-71
2024/01/28 09:26:02;;;;;;;12.15;4.30;;;;;;;2.32;100.00;102873.47;6087197;19;20010;-72
2024/01/28 09:28:08;;;;;;;8.73;4.50;;;;;;;2.37;100.00;102873.56;6087988;19;20006;-71
2024/01/28 09:30:14;;;;;;;11.77;4.80;;;;;;;2.43;100.00;102873.75;6086431;19;20072;-72
2024/01/28 09:32:20;;;;;;;8.50;4.10;;;;;;;2.55;100.00;102873.19;6087013;19;20412;-71
2024/01/28 09:34:27;;;;;;;6.03;3.88;;;;;;;2.64;100.00;102865.63;6086922;19;20292;-71
2024/01/28 09:36:32;;;;;;;8.93;4.57;;;;;;;2.72;100.00;102865.81;6087277;19;19999;-71
2024/01/28 09:38:39;;;;;;;7.25;4.35;;;;;;;2.80;100.00;102865.16;6084509;19;20047;-72
2024/01/28 09:40:52;;;;;;;6.82;4.15;;;;;;;2.79;100.00;102860.81;6084493;19;20369;-74